createdAt,value
2018-03-28T00:00:00.535Z,12.65
2018-03-28T00:00:34.402Z,11.98
2018-03-28T00:01:08.259Z,17.92
2018-03-28T00:01:42.129Z,12.73
2018-03-28T00:02:16.006Z,14.80
2018-03-28T00:02:49.871Z,13.45
2018-03-28T00:03:23.721Z,15.77
2018-03-28T00:03:57.590Z,12.75
2018-03-28T00:04:31.442Z,12.35
2018-03-28T00:05:05.298Z,14.05
2018-03-28T00:05:39.167Z,14.98
2018-03-28T00:06:13.087Z,15.25
2018-03-28T00:06:46.951Z,12.30
2018-03-28T00:07:20.825Z,16.48
2018-03-28T00:07:54.696Z,14.85
2018-03-28T00:08:28.553Z,13.50
2018-03-28T00:09:02.434Z,16.35
2018-03-28T00:09:36.458Z,14.70
2018-03-28T00:10:10.320Z,14.20
2018-03-28T00:10:44.173Z,15.23
2018-03-28T00:11:18.248Z,12.43
2018-03-28T00:11:52.101Z,13.68
2018-03-28T00:12:25.988Z,12.80
2018-03-28T00:13:00.081Z,13.43
2018-03-28T00:13:33.938Z,17.02
2018-03-28T00:14:07.797Z,10.68
2018-03-28T00:14:41.650Z,13.75
2018-03-28T00:15:15.502Z,14.05
2018-03-28T00:15:49.350Z,14.40
2018-03-28T00:16:23.224Z,12.23
2018-03-28T00:16:57.075Z,14.18
2018-03-28T00:17:31.097Z,14.52
2018-03-28T00:18:04.966Z,13.95
2018-03-28T00:18:38.827Z,10.73
2018-03-28T00:19:12.690Z,12.23
2018-03-28T00:19:46.536Z,14.80
2018-03-28T00:20:20.411Z,14.60
2018-03-28T00:20:54.259Z,14.02
2018-03-28T00:21:28.122Z,15.57
2018-03-28T00:22:01.985Z,12.63
2018-03-28T00:22:36.077Z,13.32
2018-03-28T00:23:09.926Z,12.82
2018-03-28T00:23:43.911Z,14.15
2018-03-28T00:24:17.840Z,14.27
2018-03-28T00:24:51.697Z,13.40
2018-03-28T00:25:25.550Z,13.10
2018-03-28T00:25:59.402Z,13.02
2018-03-28T00:26:33.286Z,13.80
2018-03-28T00:27:07.165Z,13.18
2018-03-28T00:27:41.033Z,14.63
2018-03-28T00:28:14.892Z,12.60
2018-03-28T00:28:48.760Z,15.80
2018-03-28T00:29:22.631Z,13.73
2018-03-28T00:29:56.492Z,15.90
2018-03-28T00:30:30.489Z,14.25
2018-03-28T00:31:04.344Z,13.75
2018-03-28T00:31:38.193Z,14.60
2018-03-28T00:32:12.067Z,13.30
2018-03-28T00:32:45.940Z,16.77
2018-03-28T00:33:19.809Z,12.37
2018-03-28T00:33:53.663Z,15.70
2018-03-28T00:34:27.533Z,17.55
2018-03-28T00:35:01.396Z,13.65
2018-03-28T00:35:35.347Z,15.07
2018-03-28T00:36:09.223Z,14.40
2018-03-28T00:36:44.034Z,17.55
2018-03-28T00:37:17.899Z,16.10
2018-03-28T00:37:51.793Z,16.08
2018-03-28T00:38:25.653Z,16.90
2018-03-28T00:38:59.501Z,14.38
2018-03-28T00:39:33.348Z,12.70
2018-03-28T00:40:07.211Z,15.18
2018-03-28T00:40:41.076Z,16.65
2018-03-28T00:41:14.933Z,18.23
2018-03-28T00:41:48.782Z,15.75
2018-03-28T00:42:22.863Z,15.45
2018-03-28T00:42:56.743Z,14.13
2018-03-28T00:43:30.609Z,12.50
2018-03-28T00:44:05.326Z,17.40
2018-03-28T00:44:39.301Z,12.50
2018-03-28T00:45:13.162Z,14.95
2018-03-28T00:45:47.021Z,16.80
2018-03-28T00:46:20.984Z,16.65
2018-03-28T00:46:54.862Z,15.73
2018-03-28T00:47:28.718Z,15.38
2018-03-28T00:48:02.589Z,16.60
2018-03-28T00:48:36.452Z,17.10
2018-03-28T00:49:10.313Z,18.02
2018-03-28T00:49:44.173Z,13.55
2018-03-28T00:50:18.025Z,16.48
2018-03-28T00:50:51.890Z,20.85
2018-03-28T00:51:40.603Z,17.70
2018-03-28T00:52:14.458Z,13.90
2018-03-28T00:52:48.327Z,14.50
2018-03-28T00:53:22.478Z,14.55
2018-03-28T00:53:56.329Z,17.10
2018-03-28T00:54:30.179Z,17.70
2018-03-28T00:55:04.045Z,19.42
2018-03-28T00:55:37.905Z,21.37
2018-03-28T00:56:11.764Z,15.30
2018-03-28T00:56:45.624Z,13.82
2018-03-28T00:57:19.484Z,16.15
2018-03-28T00:57:53.337Z,15.80
2018-03-28T00:58:27.203Z,14.23
2018-03-28T00:59:01.065Z,19.67
2018-03-28T00:59:34.930Z,16.75
2018-03-28T01:00:08.797Z,19.87
2018-03-28T01:00:42.654Z,18.42
2018-03-28T01:01:16.803Z,19.60
2018-03-28T01:01:50.658Z,16.65
2018-03-28T01:02:24.523Z,16.05
2018-03-28T01:02:58.390Z,17.95
2018-03-28T01:03:32.265Z,17.52
2018-03-28T01:04:06.140Z,18.60
2018-03-28T01:04:40.024Z,18.50
2018-03-28T01:05:13.885Z,18.87
2018-03-28T01:05:47.769Z,19.23
2018-03-28T01:06:21.630Z,18.48
2018-03-28T01:06:55.492Z,15.27
2018-03-28T01:07:29.354Z,18.98
2018-03-28T01:08:03.244Z,19.65
2018-03-28T01:08:37.132Z,16.33
2018-03-28T01:09:10.989Z,18.92
2018-03-28T01:09:44.850Z,18.35
2018-03-28T01:10:18.709Z,16.65
2018-03-28T01:10:52.569Z,18.15
2018-03-28T01:11:26.531Z,17.20
2018-03-28T01:12:00.461Z,17.35
2018-03-28T01:12:34.396Z,17.65
2018-03-28T01:13:08.337Z,19.90
2018-03-28T01:13:42.356Z,17.67
2018-03-28T01:14:16.318Z,16.58
2018-03-28T01:14:50.204Z,14.85
2018-03-28T01:15:24.131Z,17.33
2018-03-28T01:15:58.067Z,20.70
2018-03-28T01:16:31.941Z,17.80
2018-03-28T01:17:05.811Z,16.87
2018-03-28T01:17:39.694Z,20.10
2018-03-28T01:18:13.546Z,16.92
2018-03-28T01:18:47.423Z,18.90
2018-03-28T01:19:21.284Z,18.62
2018-03-28T01:19:55.137Z,19.90
2018-03-28T01:20:29.004Z,16.48
2018-03-28T01:21:02.875Z,16.12
2018-03-28T01:21:36.732Z,18.62
2018-03-28T01:22:10.594Z,16.70
2018-03-28T01:22:44.455Z,21.85
2018-03-28T01:23:18.321Z,15.82
2018-03-28T01:23:52.189Z,21.17
2018-03-28T01:24:26.054Z,21.70
2018-03-28T01:24:59.920Z,17.77
2018-03-28T01:25:33.780Z,21.42
2018-03-28T01:26:07.642Z,20.75
2018-03-28T01:26:41.503Z,18.48
2018-03-28T01:27:15.372Z,16.50
2018-03-28T01:27:49.230Z,16.02
2018-03-28T01:28:23.085Z,17.35
2018-03-28T01:28:56.966Z,18.50
2018-03-28T01:29:30.829Z,19.52
2018-03-28T01:30:04.738Z,16.85
2018-03-28T01:30:38.597Z,21.27
2018-03-28T01:31:12.452Z,20.98
2018-03-28T01:31:46.365Z,15.60
2018-03-28T01:32:20.237Z,16.90
2018-03-28T01:32:54.093Z,16.92
2018-03-28T01:33:28.222Z,19.70
2018-03-28T01:34:02.113Z,20.02
2018-03-28T01:34:35.976Z,18.85
2018-03-28T01:35:09.877Z,15.50
2018-03-28T01:35:43.745Z,22.75
2018-03-28T01:36:17.625Z,18.90
2018-03-28T01:36:54.334Z,16.55
2018-03-28T01:37:28.193Z,17.87
2018-03-28T01:38:02.056Z,18.05
2018-03-28T01:38:36.047Z,20.02
2018-03-28T01:39:09.924Z,20.33
2018-03-28T01:39:43.797Z,20.08
2018-03-28T01:40:17.730Z,22.30
2018-03-28T01:40:51.602Z,20.00
2018-03-28T01:41:25.467Z,18.40
2018-03-28T01:41:59.340Z,18.98
2018-03-28T01:42:33.199Z,18.58
2018-03-28T01:43:07.064Z,20.75
2018-03-28T01:43:40.917Z,20.27
2018-03-28T01:44:14.805Z,18.10
2018-03-28T01:44:48.677Z,20.25
2018-03-28T01:45:22.550Z,19.67
2018-03-28T01:45:56.411Z,21.05
2018-03-28T01:46:30.372Z,22.13
2018-03-28T01:47:04.242Z,20.23
2018-03-28T01:47:38.106Z,18.73
2018-03-28T01:48:11.977Z,18.87
2018-03-28T01:48:45.842Z,15.90
2018-03-28T01:49:19.749Z,22.20
2018-03-28T01:49:53.850Z,15.55
2018-03-28T01:50:27.719Z,20.50
2018-03-28T01:51:01.618Z,21.45
2018-03-28T01:51:35.477Z,20.33
2018-03-28T01:52:09.346Z,18.73
2018-03-28T01:52:43.217Z,20.70
2018-03-28T01:53:17.098Z,20.35
2018-03-28T01:53:50.957Z,21.37
2018-03-28T01:54:25.010Z,19.20
2018-03-28T01:54:58.887Z,16.98
2018-03-28T01:55:32.756Z,20.45
2018-03-28T01:56:06.697Z,20.58
2018-03-28T01:56:40.558Z,20.10
2018-03-28T01:57:14.417Z,20.95
2018-03-28T01:57:48.290Z,18.25
2018-03-28T01:58:22.154Z,17.92
2018-03-28T01:58:56.022Z,16.92
2018-03-28T01:59:29.904Z,24.40
2018-03-28T02:00:03.769Z,20.90
2018-03-28T02:00:37.648Z,21.30
2018-03-28T02:01:11.507Z,18.95
2018-03-28T02:01:45.373Z,23.85
2018-03-28T02:02:19.340Z,20.55
2018-03-28T02:02:53.205Z,20.58
2018-03-28T02:03:27.077Z,21.62
2018-03-28T02:04:00.941Z,19.00
2018-03-28T02:04:34.824Z,19.87
2018-03-28T02:05:08.694Z,24.50
2018-03-28T02:05:42.565Z,24.08
2018-03-28T02:06:16.428Z,18.85
2018-03-28T02:06:50.301Z,24.48
2018-03-28T02:07:24.397Z,25.48
2018-03-28T02:07:58.255Z,18.90
2018-03-28T02:08:32.111Z,19.23
2018-03-28T02:09:05.986Z,23.95
2018-03-28T02:09:39.854Z,22.27
2018-03-28T02:10:13.757Z,20.30
2018-03-28T02:10:47.624Z,22.70
2018-03-28T02:11:21.497Z,23.02
2018-03-28T02:11:55.357Z,23.12
2018-03-28T02:12:29.209Z,21.02
2018-03-28T02:13:03.069Z,23.30
2018-03-28T02:13:36.939Z,18.75
2018-03-28T02:14:10.815Z,26.12
2018-03-28T02:14:44.704Z,22.35
2018-03-28T02:15:18.596Z,20.58
2018-03-28T02:15:52.449Z,22.40
2018-03-28T02:16:26.321Z,19.02
2018-03-28T02:17:00.183Z,24.67
2018-03-28T02:17:34.059Z,22.37
2018-03-28T02:18:07.933Z,20.17
2018-03-28T02:18:41.834Z,23.12
2018-03-28T02:19:15.720Z,26.60
2018-03-28T02:19:49.615Z,21.25
2018-03-28T02:20:23.479Z,26.37
2018-03-28T02:20:57.357Z,25.73
2018-03-28T02:21:31.370Z,21.15
2018-03-28T02:22:05.238Z,25.08
2018-03-28T02:22:39.092Z,22.90
2018-03-28T02:23:12.973Z,22.13
2018-03-28T02:23:46.838Z,22.30
2018-03-28T02:24:20.707Z,21.42
2018-03-28T02:24:54.746Z,21.50
2018-03-28T02:25:28.604Z,20.25
2018-03-28T02:26:02.460Z,23.58
2018-03-28T02:26:36.321Z,22.48
2018-03-28T02:27:10.198Z,25.35
2018-03-28T02:27:44.090Z,24.90
2018-03-28T02:28:17.948Z,22.62
2018-03-28T02:28:51.807Z,27.20
2018-03-28T02:29:25.697Z,23.00
2018-03-28T02:30:39.865Z,24.40
2018-03-28T02:31:13.750Z,24.27
2018-03-28T02:31:47.607Z,25.65
2018-03-28T02:32:21.731Z,24.25
2018-03-28T02:32:55.600Z,27.55
2018-03-28T02:33:29.495Z,27.35
2018-03-28T02:34:03.500Z,26.30
2018-03-28T02:34:37.366Z,27.95
2018-03-28T02:35:11.240Z,27.27
2018-03-28T02:35:45.104Z,27.27
2018-03-28T02:36:18.975Z,24.92
2018-03-28T02:36:52.840Z,23.55
2018-03-28T02:37:26.691Z,26.20
2018-03-28T02:38:00.571Z,27.23
2018-03-28T02:38:34.436Z,21.37
2018-03-28T02:39:08.287Z,30.80
2018-03-28T02:39:42.132Z,23.48
2018-03-28T02:40:16.007Z,24.23
2018-03-28T02:40:49.886Z,26.20
2018-03-28T02:41:23.809Z,25.67
2018-03-28T02:41:57.666Z,26.35
2018-03-28T02:42:31.538Z,29.02
2018-03-28T02:43:05.403Z,27.77
2018-03-28T02:43:39.286Z,23.90
2018-03-28T02:44:13.150Z,28.12
2018-03-28T02:44:47.036Z,28.80
2018-03-28T02:45:20.907Z,30.45
2018-03-28T02:45:54.769Z,25.55
2018-03-28T02:46:28.708Z,28.40
2018-03-28T02:47:02.562Z,27.33
2018-03-28T02:47:36.438Z,32.63
2018-03-28T02:48:10.307Z,26.40
2018-03-28T02:48:44.178Z,26.25
2018-03-28T02:49:18.044Z,27.35
2018-03-28T02:49:51.909Z,33.17
2018-03-28T02:50:25.799Z,27.27
2018-03-28T02:50:59.672Z,26.05
2018-03-28T02:51:33.566Z,29.10
2018-03-28T02:52:07.430Z,23.80
2018-03-28T02:52:41.304Z,31.15
2018-03-28T02:53:15.182Z,27.45
2018-03-28T02:53:49.055Z,29.75
2018-03-28T02:54:22.923Z,29.73
2018-03-28T02:54:57.021Z,31.08
2018-03-28T02:55:30.911Z,29.02
2018-03-28T02:56:04.773Z,28.45
2018-03-28T02:56:38.638Z,28.35
2018-03-28T02:57:12.500Z,31.23
2018-03-28T02:57:46.378Z,24.15
2018-03-28T02:58:20.228Z,30.80
2018-03-28T02:58:54.089Z,29.87
2018-03-28T02:59:27.957Z,30.92
2018-03-28T03:00:01.826Z,26.35
2018-03-28T03:00:35.698Z,28.35
2018-03-28T03:01:09.563Z,33.47
2018-03-28T03:01:43.572Z,34.25
2018-03-28T03:02:17.851Z,29.50
2018-03-28T03:02:51.722Z,30.92
2018-03-28T03:03:25.586Z,34.28
2018-03-28T03:03:59.456Z,31.52
2018-03-28T03:04:33.312Z,28.85
2018-03-28T03:05:07.193Z,30.92
2018-03-28T03:05:41.074Z,30.80
2018-03-28T03:06:14.947Z,30.15
2018-03-28T03:06:48.854Z,27.98
2018-03-28T03:07:22.755Z,25.50
2018-03-28T03:07:56.615Z,26.65
2018-03-28T03:08:30.489Z,28.25
2018-03-28T03:09:04.369Z,32.47
2018-03-28T03:09:38.221Z,28.62
2018-03-28T03:10:12.104Z,31.98
2018-03-28T03:10:45.985Z,28.73
2018-03-28T03:11:19.850Z,28.00
2018-03-28T03:11:53.714Z,29.42
2018-03-28T03:12:27.588Z,31.48
2018-03-28T03:13:01.457Z,31.02
2018-03-28T03:13:35.305Z,31.98
2018-03-28T03:14:09.159Z,36.15
2018-03-28T03:14:43.026Z,33.90
2018-03-28T03:15:16.884Z,26.95
2018-03-28T03:15:50.753Z,33.80
2018-03-28T03:16:24.613Z,30.17
2018-03-28T03:16:58.469Z,32.47
2018-03-28T03:17:32.332Z,31.15
2018-03-28T03:18:06.185Z,30.58
2018-03-28T03:18:40.042Z,29.23
2018-03-28T03:19:13.884Z,34.85
2018-03-28T03:19:48.012Z,28.60
2018-03-28T03:20:21.870Z,29.67
2018-03-28T03:20:55.755Z,30.77
2018-03-28T03:21:29.697Z,28.65
2018-03-28T03:22:03.556Z,34.97
2018-03-28T03:22:37.421Z,29.67
2018-03-28T03:23:11.282Z,35.22
2018-03-28T03:23:45.141Z,33.22
2018-03-28T03:24:19.004Z,30.05
2018-03-28T03:24:53.076Z,25.25
2018-03-28T03:25:26.935Z,37.25
2018-03-28T03:26:00.841Z,33.55
2018-03-28T03:26:34.716Z,31.83
2018-03-28T03:27:08.583Z,29.75
2018-03-28T03:27:42.437Z,30.88
2018-03-28T03:28:16.297Z,29.52
2018-03-28T03:28:50.158Z,33.50
2018-03-28T03:29:24.023Z,34.75
2018-03-28T03:29:57.892Z,36.83
2018-03-28T03:30:31.761Z,29.80
2018-03-28T03:31:05.656Z,31.50
2018-03-28T03:31:39.518Z,34.13
2018-03-28T03:32:13.384Z,33.15
2018-03-28T03:32:47.244Z,35.38
2018-03-28T03:33:21.114Z,32.70
2018-03-28T03:33:54.980Z,28.42
2018-03-28T03:34:28.849Z,31.45
2018-03-28T03:35:02.702Z,31.52
2018-03-28T03:35:36.567Z,33.70
2018-03-28T03:36:10.464Z,33.20
2018-03-28T03:36:44.349Z,31.92
2018-03-28T03:37:18.360Z,30.65
2018-03-28T03:37:52.217Z,33.90
2018-03-28T03:38:26.096Z,30.65
2018-03-28T03:38:59.961Z,32.42
2018-03-28T03:39:33.836Z,30.23
2018-03-28T03:40:07.699Z,30.33
2018-03-28T03:40:41.565Z,36.80
2018-03-28T03:41:15.461Z,33.65
2018-03-28T03:41:49.344Z,32.60
2018-03-28T03:42:23.231Z,34.97
2018-03-28T03:42:57.095Z,31.12
2018-03-28T03:43:30.957Z,33.58
2018-03-28T03:44:04.826Z,29.10
2018-03-28T03:44:38.812Z,31.42
2018-03-28T03:45:12.669Z,34.75
2018-03-28T03:45:46.550Z,34.20
2018-03-28T03:46:20.443Z,31.40
2018-03-28T03:46:54.329Z,29.80
2018-03-28T03:47:28.193Z,31.27
2018-03-28T03:48:02.062Z,33.60
2018-03-28T03:48:35.949Z,40.17
2018-03-28T03:49:09.814Z,32.38
2018-03-28T03:49:43.754Z,32.70
2018-03-28T03:50:17.631Z,31.25
2018-03-28T03:50:51.494Z,34.60
2018-03-28T03:51:25.352Z,35.55
2018-03-28T03:51:59.213Z,38.38
2018-03-28T03:52:33.070Z,36.70
2018-03-28T03:53:07.030Z,35.03
2018-03-28T03:53:40.892Z,33.55
2018-03-28T03:54:14.773Z,34.15
2018-03-28T03:54:48.630Z,32.05
2018-03-28T03:55:22.500Z,32.38
2018-03-28T03:55:56.390Z,34.55
2018-03-28T03:56:30.274Z,33.25
2018-03-28T03:57:04.141Z,32.80
2018-03-28T03:57:38.060Z,33.00
2018-03-28T03:58:11.934Z,36.15
2018-03-28T03:58:45.855Z,32.45
2018-03-28T03:59:19.714Z,37.55
2018-03-28T03:59:53.571Z,33.65
2018-03-28T04:00:27.426Z,42.97
2018-03-28T04:01:01.310Z,36.15
2018-03-28T04:01:35.202Z,32.95
2018-03-28T04:02:09.064Z,35.42
2018-03-28T04:02:42.929Z,33.40
2018-03-28T04:03:16.801Z,31.45
2018-03-28T04:03:50.690Z,34.78
2018-03-28T04:04:24.577Z,35.60
2018-03-28T04:04:58.442Z,35.45
2018-03-28T04:05:32.302Z,35.10
2018-03-28T04:06:06.165Z,35.13
2018-03-28T04:06:40.075Z,35.17
2018-03-28T04:07:13.939Z,33.20
2018-03-28T04:07:47.796Z,38.17
2018-03-28T04:08:21.675Z,33.85
2018-03-28T04:08:55.530Z,35.90
2018-03-28T04:09:29.393Z,33.65
2018-03-28T04:10:03.260Z,36.22
2018-03-28T04:10:37.156Z,35.40
2018-03-28T04:11:11.013Z,34.50
2018-03-28T04:11:44.894Z,39.35
2018-03-28T04:12:18.757Z,37.78
2018-03-28T04:12:52.903Z,37.03
2018-03-28T04:13:26.785Z,41.83
2018-03-28T04:14:00.663Z,32.90
2018-03-28T04:14:34.528Z,37.95
2018-03-28T04:15:08.390Z,44.53
2018-03-28T04:15:42.265Z,35.65
2018-03-28T04:16:16.137Z,33.97
2018-03-28T04:16:50.006Z,35.92
2018-03-28T04:17:23.865Z,40.17
2018-03-28T04:17:57.736Z,37.80
2018-03-28T04:18:31.595Z,35.75
2018-03-28T04:19:05.457Z,37.58
2018-03-28T04:19:39.322Z,38.50
2018-03-28T04:20:13.177Z,37.42
2018-03-28T04:20:47.270Z,38.55
2018-03-28T04:21:21.125Z,36.50
2018-03-28T04:21:55.058Z,37.40
2018-03-28T04:22:28.922Z,36.78
2018-03-28T04:23:02.780Z,39.53
2018-03-28T04:23:36.749Z,34.92
2018-03-28T04:24:10.596Z,36.17
2018-03-28T04:24:44.474Z,37.50
2018-03-28T04:25:18.431Z,36.28
2018-03-28T04:25:52.285Z,38.08
2018-03-28T04:26:26.148Z,40.00
2018-03-28T04:27:00.021Z,36.63
2018-03-28T04:27:33.906Z,37.42
2018-03-28T04:28:07.809Z,36.88
2018-03-28T04:28:41.725Z,37.03
2018-03-28T04:29:15.594Z,42.22
2018-03-28T04:29:49.450Z,42.50
2018-03-28T04:30:23.314Z,37.65
2018-03-28T04:30:57.209Z,36.03
2018-03-28T04:31:31.067Z,39.42
2018-03-28T04:32:04.938Z,37.08
2018-03-28T04:32:38.798Z,41.25
2018-03-28T04:33:12.762Z,43.13
2018-03-28T04:33:46.620Z,38.92
2018-03-28T04:34:20.485Z,34.08
2018-03-28T04:34:54.336Z,42.58
2018-03-28T04:35:28.204Z,40.40
2018-03-28T04:36:02.074Z,38.90
2018-03-28T04:36:36.212Z,35.97
2018-03-28T04:37:10.146Z,37.60
2018-03-28T04:37:44.054Z,36.47
2018-03-28T04:38:17.910Z,37.10
2018-03-28T04:38:51.779Z,41.05
2018-03-28T04:39:25.696Z,41.17
2018-03-28T04:39:59.557Z,42.95
2018-03-28T04:40:33.606Z,35.88
2018-03-28T04:41:07.473Z,45.78
2018-03-28T04:41:41.338Z,36.45
2018-03-28T04:42:15.231Z,39.55
2018-03-28T04:42:49.100Z,37.35
2018-03-28T04:43:22.956Z,42.20
2018-03-28T04:43:56.826Z,42.45
2018-03-28T04:44:30.721Z,38.72
2018-03-28T04:45:04.643Z,39.10
2018-03-28T04:45:38.511Z,38.30
2018-03-28T04:46:12.389Z,41.60
2018-03-28T04:46:46.256Z,40.60
2018-03-28T04:47:20.153Z,40.83
2018-03-28T04:47:54.016Z,40.63
2018-03-28T04:48:27.877Z,44.78
2018-03-28T04:49:01.742Z,40.47
2018-03-28T04:49:35.589Z,44.10
2018-03-28T04:50:09.468Z,40.20
2018-03-28T04:50:43.343Z,44.10
2018-03-28T04:51:18.012Z,41.00
2018-03-28T04:51:51.885Z,40.03
2018-03-28T04:52:25.796Z,39.08
2018-03-28T04:52:59.670Z,42.13
2018-03-28T04:53:33.528Z,42.67
2018-03-28T04:54:07.445Z,43.38
2018-03-28T04:54:41.351Z,40.15
2018-03-28T04:55:15.214Z,46.08
2018-03-28T04:55:49.079Z,38.28
2018-03-28T04:56:22.979Z,39.88
2018-03-28T04:56:56.836Z,38.90
2018-03-28T04:57:30.717Z,42.72
2018-03-28T04:58:04.612Z,44.25
2018-03-28T04:58:38.480Z,45.95
2018-03-28T04:59:12.349Z,39.78
2018-03-28T04:59:46.969Z,43.83
2018-03-28T05:00:20.843Z,45.42
2018-03-28T05:00:54.860Z,51.28
2018-03-28T05:01:28.719Z,43.13
2018-03-28T05:02:02.608Z,47.17
2018-03-28T05:02:36.477Z,42.60
2018-03-28T05:03:10.346Z,50.95
2018-03-28T05:03:44.229Z,48.45
2018-03-28T05:04:18.154Z,39.88
2018-03-28T05:04:52.023Z,49.42
2018-03-28T05:05:25.908Z,39.72
2018-03-28T05:05:59.795Z,43.40
2018-03-28T05:06:33.663Z,41.20
2018-03-28T05:07:07.533Z,45.83
2018-03-28T05:07:41.410Z,44.22
2018-03-28T05:08:15.291Z,47.45
2018-03-28T05:08:49.151Z,47.88
2018-03-28T05:09:23.017Z,40.50
2018-03-28T05:09:56.980Z,43.75
2018-03-28T05:10:30.833Z,46.85
2018-03-28T05:11:04.702Z,47.58
2018-03-28T05:11:38.574Z,42.90
2018-03-28T05:12:12.448Z,54.83
2018-03-28T05:12:48.149Z,43.92
2018-03-28T05:13:22.022Z,46.45
2018-03-28T05:13:55.909Z,45.83
2018-03-28T05:14:30.088Z,45.08
2018-03-28T05:15:03.967Z,43.40
2018-03-28T05:15:37.850Z,50.22
2018-03-28T05:16:11.759Z,44.72
2018-03-28T05:16:45.617Z,46.03
2018-03-28T05:17:19.537Z,47.65
2018-03-28T05:17:53.396Z,41.17
2018-03-28T05:18:27.265Z,49.38
2018-03-28T05:19:01.747Z,47.60
2018-03-28T05:19:36.103Z,44.67
2018-03-28T05:20:09.962Z,44.35
2018-03-28T05:20:43.961Z,46.65
2018-03-28T05:21:17.826Z,47.62
2018-03-28T05:21:51.697Z,40.95
2018-03-28T05:22:25.564Z,46.22
2018-03-28T05:22:59.448Z,49.70
2018-03-28T05:23:33.530Z,46.10
2018-03-28T05:24:07.393Z,47.78
2018-03-28T05:24:41.371Z,47.70
2018-03-28T05:25:15.230Z,45.92
2018-03-28T05:25:49.101Z,47.47
2018-03-28T05:26:22.994Z,45.40
2018-03-28T05:26:56.868Z,40.55
2018-03-28T05:27:30.761Z,51.95
2018-03-28T05:28:04.648Z,48.55
2018-03-28T05:28:38.701Z,44.95
2018-03-28T05:29:12.567Z,50.20
2018-03-28T05:29:47.368Z,45.65
2018-03-28T05:30:21.263Z,50.58
2018-03-28T05:30:55.135Z,47.08
2018-03-28T05:31:29.009Z,45.97
2018-03-28T05:32:02.873Z,47.50
2018-03-28T05:32:36.751Z,49.05
2018-03-28T05:33:10.714Z,55.33
2018-03-28T05:33:44.603Z,46.22
2018-03-28T05:34:18.470Z,48.60
2018-03-28T05:34:52.325Z,49.40
2018-03-28T05:35:26.263Z,50.63
2018-03-28T05:36:00.263Z,47.35
2018-03-28T05:36:34.129Z,49.63
2018-03-28T05:37:08.013Z,50.22
2018-03-28T05:37:41.927Z,46.28
2018-03-28T05:38:15.830Z,55.40
2018-03-28T05:38:49.701Z,51.45
2018-03-28T05:39:23.577Z,49.95
2018-03-28T05:39:57.455Z,50.65
2018-03-28T05:40:31.329Z,52.92
2018-03-28T05:41:05.203Z,46.17
2018-03-28T05:41:39.066Z,53.58
2018-03-28T05:42:13.636Z,55.38
2018-03-28T05:42:47.530Z,51.95
2018-03-28T05:43:21.478Z,59.78
2018-03-28T05:43:55.364Z,52.70
2018-03-28T05:44:29.247Z,57.55
2018-03-28T05:45:03.123Z,50.65
2018-03-28T05:45:37.033Z,53.42
2018-03-28T05:46:10.939Z,53.08
2018-03-28T05:46:44.804Z,51.47
2018-03-28T05:47:18.680Z,54.00
2018-03-28T05:47:52.558Z,54.33
2018-03-28T05:48:26.451Z,55.97
2018-03-28T05:49:00.346Z,55.00
2018-03-28T05:49:37.895Z,47.88
2018-03-28T05:50:11.762Z,57.55
2018-03-28T05:50:45.641Z,56.20
2018-03-28T05:51:19.615Z,54.30
2018-03-28T05:51:53.629Z,50.72
2018-03-28T05:52:27.502Z,56.40
2018-03-28T05:53:03.379Z,49.97
2018-03-28T05:53:37.368Z,53.80
2018-03-28T05:54:14.988Z,47.35
2018-03-28T05:54:49.537Z,48.90
2018-03-28T05:55:23.454Z,56.47
2018-03-28T05:55:57.369Z,50.47
2018-03-28T05:56:31.314Z,53.28
2018-03-28T05:57:11.256Z,53.30
2018-03-28T05:57:45.245Z,52.95
2018-03-28T05:58:19.319Z,54.30
2018-03-28T05:58:53.270Z,49.28
2018-03-28T05:59:27.177Z,56.45
2018-03-28T06:00:01.053Z,49.78
2018-03-28T06:00:35.270Z,58.95
2018-03-28T06:01:09.156Z,53.20
2018-03-28T06:01:43.115Z,57.58
2018-03-28T06:02:16.990Z,55.15
2018-03-28T06:02:50.895Z,61.33
2018-03-28T06:03:24.766Z,58.72
2018-03-28T06:03:58.639Z,56.80
2018-03-28T06:04:33.420Z,52.90
2018-03-28T06:05:07.304Z,58.45
2018-03-28T06:05:41.176Z,57.53
2018-03-28T06:06:15.351Z,58.17
2018-03-28T06:06:49.226Z,58.22
2018-03-28T06:07:23.163Z,53.90
2018-03-28T06:07:57.138Z,51.30
2018-03-28T06:08:31.015Z,50.25
2018-03-28T06:09:05.839Z,58.42
2018-03-28T06:09:39.696Z,57.95
2018-03-28T06:10:13.634Z,56.10
2018-03-28T06:10:47.560Z,59.45
2018-03-28T06:11:21.637Z,59.42
2018-03-28T06:11:55.504Z,56.08
2018-03-28T06:12:29.431Z,58.58
2018-03-28T06:13:03.342Z,58.90
2018-03-28T06:13:37.210Z,64.97
2018-03-28T06:14:11.136Z,59.08
2018-03-28T06:14:44.998Z,69.60
2018-03-28T06:15:18.861Z,57.65
2018-03-28T06:15:53.230Z,60.22
2018-03-28T06:16:28.326Z,60.95
2018-03-28T06:17:02.907Z,59.83
2018-03-28T06:17:37.968Z,63.25
2018-03-28T06:18:12.834Z,59.63
2018-03-28T06:18:46.955Z,63.35
2018-03-28T06:19:20.916Z,61.03
2018-03-28T06:19:54.981Z,66.85
2018-03-28T06:20:28.840Z,60.85
2018-03-28T06:21:02.713Z,60.58
2018-03-28T06:21:36.578Z,57.55
2018-03-28T06:22:10.441Z,66.40
2018-03-28T06:22:44.370Z,57.62
2018-03-28T06:23:18.265Z,57.35
2018-03-28T06:23:52.126Z,60.20
2018-03-28T06:24:26.001Z,54.08
2018-03-28T06:24:59.890Z,68.30
2018-03-28T06:25:34.501Z,60.20
2018-03-28T06:26:08.442Z,66.72
2018-03-28T06:26:42.336Z,70.65
2018-03-28T06:27:16.220Z,64.50
2018-03-28T06:27:50.080Z,69.05
2018-03-28T06:28:23.971Z,65.05
2018-03-28T06:28:57.848Z,61.90
2018-03-28T06:29:33.133Z,66.70
2018-03-28T06:30:07.251Z,58.92
2018-03-28T06:30:41.152Z,64.65
2018-03-28T06:31:15.054Z,64.90
2018-03-28T06:31:48.939Z,61.60
2018-03-28T06:32:22.799Z,68.65
2018-03-28T06:32:56.680Z,58.80
2018-03-28T06:33:30.542Z,69.07
2018-03-28T06:34:04.393Z,66.25
2018-03-28T06:34:38.260Z,69.60
2018-03-28T06:35:12.363Z,69.30
2018-03-28T06:35:46.229Z,72.45
2018-03-28T06:36:20.115Z,64.37
2018-03-28T06:36:53.983Z,63.47
2018-03-28T06:37:27.872Z,62.33
2018-03-28T06:38:01.883Z,65.00
2018-03-28T06:38:35.889Z,66.18
2018-03-28T06:39:09.761Z,65.22
2018-03-28T06:39:43.697Z,69.37
2018-03-28T06:40:17.684Z,69.43
2018-03-28T06:40:51.544Z,58.55
2018-03-28T06:41:25.410Z,68.43
2018-03-28T06:41:59.315Z,67.55
2018-03-28T06:42:33.174Z,69.55
2018-03-28T06:43:07.041Z,70.53
2018-03-28T06:43:40.920Z,67.35
2018-03-28T06:44:14.785Z,66.07
2018-03-28T06:44:48.669Z,73.82
2018-03-28T06:45:22.696Z,72.87
2018-03-28T06:45:56.694Z,76.78
2018-03-28T06:46:30.581Z,71.30
2018-03-28T06:47:04.459Z,68.40
2018-03-28T06:47:38.331Z,67.80
2018-03-28T06:48:12.209Z,68.25
2018-03-28T06:48:46.199Z,67.82
2018-03-28T06:49:20.065Z,65.47
2018-03-28T06:49:53.942Z,64.87
2018-03-28T06:50:27.805Z,66.65
2018-03-28T06:51:01.662Z,68.37
2018-03-28T06:51:35.547Z,63.87
2018-03-28T06:52:09.434Z,72.22
2018-03-28T06:52:43.303Z,67.62
2018-03-28T06:53:17.166Z,64.07
2018-03-28T06:53:51.069Z,66.20
2018-03-28T06:54:24.932Z,70.05
2018-03-28T06:54:58.802Z,67.10
2018-03-28T06:55:32.670Z,67.40
2018-03-28T06:56:06.529Z,68.90
2018-03-28T06:56:40.432Z,67.32
2018-03-28T06:57:14.320Z,69.05
2018-03-28T06:57:48.197Z,70.10
2018-03-28T06:58:22.993Z,71.70
2018-03-28T06:58:56.854Z,68.25
2018-03-28T06:59:31.644Z,71.25
2018-03-28T07:00:05.539Z,67.85
2018-03-28T07:00:39.445Z,64.95
2018-03-28T07:01:14.244Z,72.20
2018-03-28T07:01:48.149Z,72.37
2018-03-28T07:02:22.014Z,75.20
2018-03-28T07:02:55.877Z,69.75
2018-03-28T07:03:30.042Z,73.37
2018-03-28T07:04:03.925Z,73.80
2018-03-28T07:04:38.246Z,73.82
2018-03-28T07:05:12.201Z,75.10
2018-03-28T07:05:46.076Z,65.37
2018-03-28T07:06:20.009Z,71.35
2018-03-28T07:06:54.075Z,71.45
2018-03-28T07:07:29.596Z,68.72
2018-03-28T07:08:03.562Z,65.53
2018-03-28T07:08:37.617Z,78.50
2018-03-28T07:09:11.536Z,76.55
2018-03-28T07:09:45.444Z,76.07
2018-03-28T07:10:19.350Z,80.03
2018-03-28T07:10:53.218Z,74.53
2018-03-28T07:11:27.076Z,69.25
2018-03-28T07:12:01.061Z,66.75
2018-03-28T07:12:34.936Z,84.90
2018-03-28T07:13:08.801Z,72.25
2018-03-28T07:13:42.664Z,64.78
2018-03-28T07:14:16.590Z,69.05
2018-03-28T07:14:51.033Z,73.80
2018-03-28T07:15:25.101Z,74.80
2018-03-28T07:15:59.008Z,69.60
2018-03-28T07:16:32.954Z,77.12
2018-03-28T07:17:06.803Z,75.10
2018-03-28T07:17:40.958Z,70.40